sensor_id;sensor_type;location;lat;lon;timestamp;P1;durP1;ratioP1;P2;durP2;ratioP2
3050;SDS011;1535;51.098;6.414;2023-05-16T00:02:23;5.63;;;5.43;;
3050;SDS011;1535;51.098;6.414;2023-05-16T00:04:50;5.80;;;5.40;;
3050;SDS011;1535;51.098;6.414;2023-05-16T00:07:17;4.83;;;4.53;;
3050;SDS011;1535;51.098;6.414;2023-05-16T00:09:45;5.00;;;4.80;;
3050;SDS011;1535;51.098;6.414;2023-05-16T00:12:12;5.03;;;4.80;;
3050;SDS011;1535;51.098;6.414;2023-05-16T00:14:41;5.50;;;5.20;;
3050;SDS011;1535;51.098;6.414;2023-05-16T00:17:08;7.47;;;5.10;;
3050;SDS011;1535;51.098;6.414;2023-05-16T00:19:36;6.07;;;5.67;;
3050;SDS011;1535;51.098;6.414;2023-05-16T00:22:04;4.93;;;4.73;;
3050;SDS011;1535;51.098;6.414;2023-05-16T00:24:31;5.10;;;4.90;;
3050;SDS011;1535;51.098;6.414;2023-05-16T00:27:00;4.20;;;4.00;;
3050;SDS011;1535;51.098;6.414;2023-05-16T00:29:27;4.27;;;4.07;;
3050;SDS011;1535;51.098;6.414;2023-05-16T00:31:55;4.30;;;4.10;;
3050;SDS011;1535;51.098;6.414;2023-05-16T00:34:23;5.27;;;5.07;;
3050;SDS011;1535;51.098;6.414;2023-05-16T00:36:51;4.90;;;4.50;;
3050;SDS011;1535;51.098;6.414;2023-05-16T00:39:19;5.87;;;5.60;;
3050;SDS011;1535;51.098;6.414;2023-05-16T00:41:46;6.97;;;5.00;;
3050;SDS011;1535;51.098;6.414;2023-05-16T00:44:14;5.07;;;4.70;;
3050;SDS011;1535;51.098;6.414;2023-05-16T00:46:41;5.10;;;4.70;;
3050;SDS011;1535;51.098;6.414;2023-05-16T00:49:09;12.73;;;5.43;;
3050;SDS011;1535;51.098;6.414;2023-05-16T00:51:36;5.03;;;4.73;;
3050;SDS011;1535;51.098;6.414;2023-05-16T00:54:04;5.47;;;4.97;;
3050;SDS011;1535;51.098;6.414;2023-05-16T00:56:32;3.93;;;3.83;;
3050;SDS011;1535;51.098;6.414;2023-05-16T00:59:00;5.03;;;4.53;;
3050;SDS011;1535;51.098;6.414;2023-05-16T01:01:30;5.97;;;5.67;;
3050;SDS011;1535;51.098;6.414;2023-05-16T01:03:59;5.83;;;5.43;;
3050;SDS011;1535;51.098;6.414;2023-05-16T01:06:26;10.20;;;5.80;;
3050;SDS011;1535;51.098;6.414;2023-05-16T01:08:53;7.70;;;5.60;;
3050;SDS011;1535;51.098;6.414;2023-05-16T01:11:21;5.87;;;5.67;;
3050;SDS011;1535;51.098;6.414;2023-05-16T01:13:54;5.23;;;5.00;;
3050;SDS011;1535;51.098;6.414;2023-05-16T01:16:32;9.30;;;5.27;;
3050;SDS011;1535;51.098;6.414;2023-05-16T01:19:06;5.47;;;5.27;;
3050;SDS011;1535;51.098;6.414;2023-05-16T01:21:43;5.83;;;5.33;;
3050;SDS011;1535;51.098;6.414;2023-05-16T01:24:19;6.57;;;6.03;;
3050;SDS011;1535;51.098;6.414;2023-05-16T01:26:51;6.00;;;5.70;;
3050;SDS011;1535;51.098;6.414;2023-05-16T01:29:19;7.23;;;6.77;;
3050;SDS011;1535;51.098;6.414;2023-05-16T01:31:46;6.53;;;6.20;;
3050;SDS011;1535;51.098;6.414;2023-05-16T01:34:13;12.50;;;7.67;;
3050;SDS011;1535;51.098;6.414;2023-05-16T01:36:42;7.00;;;6.40;;
3050;SDS011;1535;51.098;6.414;2023-05-16T01:39:14;6.90;;;6.37;;
3050;SDS011;1535;51.098;6.414;2023-05-16T01:41:46;10.73;;;6.40;;
3050;SDS011;1535;51.098;6.414;2023-05-16T01:44:25;7.40;;;6.23;;
3050;SDS011;1535;51.098;6.414;2023-05-16T01:46:57;13.50;;;8.80;;
3050;SDS011;1535;51.098;6.414;2023-05-16T01:49:30;5.50;;;5.30;;
3050;SDS011;1535;51.098;6.414;2023-05-16T01:52:03;6.63;;;6.20;;
3050;SDS011;1535;51.098;6.414;2023-05-16T01:54:36;6.50;;;6.17;;
3050;SDS011;1535;51.098;6.414;2023-05-16T01:57:06;6.13;;;5.73;;
3050;SDS011;1535;51.098;6.414;2023-05-16T01:59:35;7.90;;;7.10;;
3050;SDS011;1535;51.098;6.414;2023-05-16T02:02:03;6.70;;;6.03;;
3050;SDS011;1535;51.098;6.414;2023-05-16T02:04:30;12.13;;;6.30;;
3050;SDS011;1535;51.098;6.414;2023-05-16T02:06:57;6.97;;;5.50;;
3050;SDS011;1535;51.098;6.414;2023-05-16T02:09:26;7.50;;;5.77;;
3050;SDS011;1535;51.098;6.414;2023-05-16T02:11:53;5.93;;;5.60;;
3050;SDS011;1535;51.098;6.414;2023-05-16T02:14:22;6.40;;;6.10;;
3050;SDS011;1535;51.098;6.414;2023-05-16T02:16:49;7.83;;;6.70;;
3050;SDS011;1535;51.098;6.414;2023-05-16T02:19:17;6.00;;;5.50;;
3050;SDS011;1535;51.098;6.414;2023-05-16T02:21:43;6.10;;;5.80;;
3050;SDS011;1535;51.098;6.414;2023-05-16T02:24:10;5.70;;;5.43;;
3050;SDS011;1535;51.098;6.414;2023-05-16T02:26:38;6.80;;;6.50;;
3050;SDS011;1535;51.098;6.414;2023-05-16T02:29:06;6.70;;;6.50;;
3050;SDS011;1535;51.098;6.414;2023-05-16T02:31:34;6.90;;;6.30;;
3050;SDS011;1535;51.098;6.414;2023-05-16T02:34:01;15.97;;;7.57;;
3050;SDS011;1535;51.098;6.414;2023-05-16T02:36:28;8.27;;;7.57;;
3050;SDS011;1535;51.098;6.414;2023-05-16T02:38:56;8.27;;;7.87;;
3050;SDS011;1535;51.098;6.414;2023-05-16T02:41:23;8.40;;;7.77;;
3050;SDS011;1535;51.098;6.414;2023-05-16T02:43:51;7.93;;;7.53;;
3050;SDS011;1535;51.098;6.414;2023-05-16T02:46:23;8.10;;;7.70;;
3050;SDS011;1535;51.098;6.414;2023-05-16T02:48:55;21.20;;;10.80;;
3050;SDS011;1535;51.098;6.414;2023-05-16T02:51:22;8.97;;;8.53;;
3050;SDS011;1535;51.098;6.414;2023-05-16T02:53:50;7.93;;;7.63;;
3050;SDS011;1535;51.098;6.414;2023-05-16T02:56:21;9.33;;;8.73;;
3050;SDS011;1535;51.098;6.414;2023-05-16T02:58:48;7.80;;;7.50;;
3050;SDS011;1535;51.098;6.414;2023-05-16T03:01:15;9.20;;;8.13;;
3050;SDS011;1535;51.098;6.414;2023-05-16T03:03:44;8.27;;;7.83;;
3050;SDS011;1535;51.098;6.414;2023-05-16T03:06:13;9.13;;;8.53;;
3050;SDS011;1535;51.098;6.414;2023-05-16T03:08:40;11.43;;;8.50;;
3050;SDS011;1535;51.098;6.414;2023-05-16T03:11:08;6.37;;;6.17;;
3050;SDS011;1535;51.098;6.414;2023-05-16T03:13:35;7.37;;;7.07;;
3050;SDS011;1535;51.098;6.414;2023-05-16T03:16:03;8.00;;;7.40;;
3050;SDS011;1535;51.098;6.414;2023-05-16T03:18:30;10.07;;;9.43;;
3050;SDS011;1535;51.098;6.414;2023-05-16T03:20:57;7.80;;;7.50;;
3050;SDS011;1535;51.098;6.414;2023-05-16T03:23:25;7.73;;;7.43;;
3050;SDS011;1535;51.098;6.414;2023-05-16T03:25:52;11.33;;;9.07;;
3050;SDS011;1535;51.098;6.414;2023-05-16T03:28:20;9.63;;;8.93;;
3050;SDS011;1535;51.098;6.414;2023-05-16T03:30:47;9.37;;;8.43;;
3050;SDS011;1535;51.098;6.414;2023-05-16T03:33:14;9.07;;;8.67;;
3050;SDS011;1535;51.098;6.414;2023-05-16T03:35:41;9.40;;;9.00;;
3050;SDS011;1535;51.098;6.414;2023-05-16T03:38:09;9.27;;;8.60;;
3050;SDS011;1535;51.098;6.414;2023-05-16T03:40:38;7.67;;;7.37;;
3050;SDS011;1535;51.098;6.414;2023-05-16T03:43:06;8.27;;;7.97;;
3050;SDS011;1535;51.098;6.414;2023-05-16T03:45:34;9.50;;;8.80;;
3050;SDS011;1535;51.098;6.414;2023-05-16T03:48:01;11.00;;;10.13;;
3050;SDS011;1535;51.098;6.414;2023-05-16T03:50:28;9.20;;;8.80;;
3050;SDS011;1535;51.098;6.414;2023-05-16T03:52:55;9.67;;;8.90;;
3050;SDS011;1535;51.098;6.414;2023-05-16T03:55:21;9.83;;;9.23;;
3050;SDS011;1535;51.098;6.414;2023-05-16T03:57:50;8.70;;;8.30;;
3050;SDS011;1535;51.098;6.414;2023-05-16T04:00:18;9.93;;;9.43;;
3050;SDS011;1535;51.098;6.414;2023-05-16T04:02:45;10.30;;;9.30;;
3050;SDS011;1535;51.098;6.414;2023-05-16T04:05:14;10.93;;;9.80;;
3050;SDS011;1535;51.098;6.414;2023-05-16T04:07:41;11.60;;;10.73;;
3050;SDS011;1535;51.098;6.414;2023-05-16T04:10:08;12.10;;;10.80;;
3050;SDS011;1535;51.098;6.414;2023-05-16T04:12:35;9.30;;;9.00;;
3050;SDS011;1535;51.098;6.414;2023-05-16T04:15:04;12.23;;;11.43;;
3050;SDS011;1535;51.098;6.414;2023-05-16T04:17:31;10.20;;;9.80;;
3050;SDS011;1535;51.098;6.414;2023-05-16T04:19:59;12.10;;;11.03;;
3050;SDS011;1535;51.098;6.414;2023-05-16T04:22:26;11.33;;;10.73;;
3050;SDS011;1535;51.098;6.414;2023-05-16T04:24:53;10.60;;;10.20;;
3050;SDS011;1535;51.098;6.414;2023-05-16T04:27:21;10.00;;;9.50;;
3050;SDS011;1535;51.098;6.414;2023-05-16T04:29:48;10.53;;;9.90;;
3050;SDS011;1535;51.098;6.414;2023-05-16T04:32:17;11.10;;;10.57;;
3050;SDS011;1535;51.098;6.414;2023-05-16T04:34:45;9.00;;;8.70;;
3050;SDS011;1535;51.098;6.414;2023-05-16T04:37:27;10.87;;;10.47;;
3050;SDS011;1535;51.098;6.414;2023-05-16T04:39:54;11.13;;;10.63;;
3050;SDS011;1535;51.098;6.414;2023-05-16T04:42:21;11.47;;;11.03;;
3050;SDS011;1535;51.098;6.414;2023-05-16T04:44:49;11.63;;;11.13;;
3050;SDS011;1535;51.098;6.414;2023-05-16T04:47:18;10.97;;;10.47;;
3050;SDS011;1535;51.098;6.414;2023-05-16T04:49:45;11.23;;;10.30;;
3050;SDS011;1535;51.098;6.414;2023-05-16T04:52:11;24.20;;;9.80;;
3050;SDS011;1535;51.098;6.414;2023-05-16T04:54:38;10.23;;;9.83;;
3050;SDS011;1535;51.098;6.414;2023-05-16T04:57:05;10.20;;;9.80;;
3050;SDS011;1535;51.098;6.414;2023-05-16T04:59:32;18.87;;;10.10;;
3050;SDS011;1535;51.098;6.414;2023-05-16T05:02:00;9.90;;;9.50;;
3050;SDS011;1535;51.098;6.414;2023-05-16T05:04:29;17.37;;;10.30;;
3050;SDS011;1535;51.098;6.414;2023-05-16T05:06:56;9.43;;;9.13;;
3050;SDS011;1535;51.098;6.414;2023-05-16T05:09:24;12.10;;;11.00;;
3050;SDS011;1535;51.098;6.414;2023-05-16T05:11:51;10.20;;;9.73;;
3050;SDS011;1535;51.098;6.414;2023-05-16T05:14:18;10.20;;;9.53;;
3050;SDS011;1535;51.098;6.414;2023-05-16T05:16:45;10.90;;;10.10;;
3050;SDS011;1535;51.098;6.414;2023-05-16T05:19:12;8.80;;;8.50;;
3050;SDS011;1535;51.098;6.414;2023-05-16T05:21:41;9.20;;;8.90;;
3050;SDS011;1535;51.098;6.414;2023-05-16T05:24:08;9.80;;;9.40;;
3050;SDS011;1535;51.098;6.414;2023-05-16T05:26:35;16.63;;;9.97;;
3050;SDS011;1535;51.098;6.414;2023-05-16T05:29:02;10.17;;;9.67;;
3050;SDS011;1535;51.098;6.414;2023-05-16T05:31:29;10.00;;;9.50;;
3050;SDS011;1535;51.098;6.414;2023-05-16T05:33:57;9.13;;;8.83;;
3050;SDS011;1535;51.098;6.414;2023-05-16T05:36:24;8.90;;;8.40;;
3050;SDS011;1535;51.098;6.414;2023-05-16T05:38:52;9.60;;;8.90;;
3050;SDS011;1535;51.098;6.414;2023-05-16T05:41:20;9.53;;;9.10;;
3050;SDS011;1535;51.098;6.414;2023-05-16T05:43:46;9.70;;;9.30;;
3050;SDS011;1535;51.098;6.414;2023-05-16T05:46:13;10.30;;;9.53;;
3050;SDS011;1535;51.098;6.414;2023-05-16T05:48:41;9.13;;;8.73;;
3050;SDS011;1535;51.098;6.414;2023-05-16T05:51:08;9.47;;;9.07;;
3050;SDS011;1535;51.098;6.414;2023-05-16T05:53:38;9.60;;;9.20;;
3050;SDS011;1535;51.098;6.414;2023-05-16T05:56:07;10.10;;;9.50;;
3050;SDS011;1535;51.098;6.414;2023-05-16T05:58:34;18.73;;;10.03;;
3050;SDS011;1535;51.098;6.414;2023-05-16T06:01:01;8.73;;;8.30;;
3050;SDS011;1535;51.098;6.414;2023-05-16T06:03:28;7.97;;;7.67;;
3050;SDS011;1535;51.098;6.414;2023-05-16T06:05:55;8.37;;;8.07;;
3050;SDS011;1535;51.098;6.414;2023-05-16T06:08:22;7.80;;;7.50;;
3050;SDS011;1535;51.098;6.414;2023-05-16T06:10:50;9.07;;;8.37;;
3050;SDS011;1535;51.098;6.414;2023-05-16T06:13:18;8.00;;;7.60;;
3050;SDS011;1535;51.098;6.414;2023-05-16T06:15:48;15.33;;;8.87;;
3050;SDS011;1535;51.098;6.414;2023-05-16T06:18:15;7.17;;;6.87;;
3050;SDS011;1535;51.098;6.414;2023-05-16T06:20:42;7.43;;;7.03;;
3050;SDS011;1535;51.098;6.414;2023-05-16T06:23:13;8.30;;;7.97;;
3050;SDS011;1535;51.098;6.414;2023-05-16T06:25:39;6.87;;;6.63;;
3050;SDS011;1535;51.098;6.414;2023-05-16T06:28:08;10.10;;;7.50;;
3050;SDS011;1535;51.098;6.414;2023-05-16T06:30:36;6.50;;;6.30;;
3050;SDS011;1535;51.098;6.414;2023-05-16T06:33:04;7.47;;;7.07;;
3050;SDS011;1535;51.098;6.414;2023-05-16T06:35:31;8.60;;;7.90;;
3050;SDS011;1535;51.098;6.414;2023-05-16T06:37:58;8.23;;;7.47;;
3050;SDS011;1535;51.098;6.414;2023-05-16T06:40:25;13.43;;;8.73;;
3050;SDS011;1535;51.098;6.414;2023-05-16T06:42:52;7.80;;;7.50;;
3050;SDS011;1535;51.098;6.414;2023-05-16T06:45:19;7.37;;;7.07;;
3050;SDS011;1535;51.098;6.414;2023-05-16T06:47:47;8.73;;;8.33;;
3050;SDS011;1535;51.098;6.414;2023-05-16T06:50:14;10.33;;;9.47;;
3050;SDS011;1535;51.098;6.414;2023-05-16T06:52:41;10.07;;;9.67;;
3050;SDS011;1535;51.098;6.414;2023-05-16T06:55:09;18.30;;;11.03;;
3050;SDS011;1535;51.098;6.414;2023-05-16T06:57:36;10.50;;;10.10;;
3050;SDS011;1535;51.098;6.414;2023-05-16T07:00:04;12.73;;;11.93;;
3050;SDS011;1535;51.098;6.414;2023-05-16T07:02:32;12.50;;;11.93;;
3050;SDS011;1535;51.098;6.414;2023-05-16T07:05:00;13.97;;;12.87;;
3050;SDS011;1535;51.098;6.414;2023-05-16T07:07:27;14.43;;;13.43;;
3050;SDS011;1535;51.098;6.414;2023-05-16T07:09:58;13.93;;;13.23;;
3050;SDS011;1535;51.098;6.414;2023-05-16T07:12:24;15.97;;;14.60;;
3050;SDS011;1535;51.098;6.414;2023-05-16T07:14:52;15.07;;;14.07;;
3050;SDS011;1535;51.098;6.414;2023-05-16T07:17:22;15.17;;;14.37;;
3050;SDS011;1535;51.098;6.414;2023-05-16T07:19:50;16.27;;;15.10;;
3050;SDS011;1535;51.098;6.414;2023-05-16T07:22:22;14.90;;;14.13;;
3050;SDS011;1535;51.098;6.414;2023-05-16T07:24:52;14.53;;;13.83;;
3050;SDS011;1535;51.098;6.414;2023-05-16T07:27:22;17.40;;;15.03;;
3050;SDS011;1535;51.098;6.414;2023-05-16T07:29:51;15.00;;;14.23;;
3050;SDS011;1535;51.098;6.414;2023-05-16T07:32:20;16.17;;;15.20;;
3050;SDS011;1535;51.098;6.414;2023-05-16T07:34:48;21.67;;;13.97;;
3050;SDS011;1535;51.098;6.414;2023-05-16T07:37:17;15.10;;;14.40;;
3050;SDS011;1535;51.098;6.414;2023-05-16T07:39:45;16.97;;;15.57;;
3050;SDS011;1535;51.098;6.414;2023-05-16T07:42:14;15.67;;;14.87;;
3050;SDS011;1535;51.098;6.414;2023-05-16T07:44:43;16.00;;;15.00;;
3050;SDS011;1535;51.098;6.414;2023-05-16T07:47:10;17.00;;;15.90;;
3050;SDS011;1535;51.098;6.414;2023-05-16T07:49:37;17.00;;;16.10;;
3050;SDS011;1535;51.098;6.414;2023-05-16T07:52:04;18.33;;;17.20;;
3050;SDS011;1535;51.098;6.414;2023-05-16T07:54:34;16.60;;;15.60;;
3050;SDS011;1535;51.098;6.414;2023-05-16T07:57:02;16.30;;;15.50;;
3050;SDS011;1535;51.098;6.414;2023-05-16T07:59:30;16.83;;;15.70;;
3050;SDS011;1535;51.098;6.414;2023-05-16T08:01:58;16.93;;;16.03;;
3050;SDS011;1535;51.098;6.414;2023-05-16T08:04:27;17.30;;;16.20;;
3050;SDS011;1535;51.098;6.414;2023-05-16T08:06:54;16.53;;;15.63;;
3050;SDS011;1535;51.098;6.414;2023-05-16T08:09:22;19.53;;;17.97;;
3050;SDS011;1535;51.098;6.414;2023-05-16T08:11:49;18.80;;;16.97;;
3050;SDS011;1535;51.098;6.414;2023-05-16T08:14:18;16.70;;;15.90;;
3050;SDS011;1535;51.098;6.414;2023-05-16T08:16:45;16.93;;;16.03;;
3050;SDS011;1535;51.098;6.414;2023-05-16T08:19:12;15.63;;;14.80;;
3050;SDS011;1535;51.098;6.414;2023-05-16T08:21:40;16.40;;;15.40;;
3050;SDS011;1535;51.098;6.414;2023-05-16T08:24:07;16.20;;;15.20;;
3050;SDS011;1535;51.098;6.414;2023-05-16T08:26:35;17.30;;;16.20;;
3050;SDS011;1535;51.098;6.414;2023-05-16T08:29:02;16.83;;;15.90;;
3050;SDS011;1535;51.098;6.414;2023-05-16T08:31:30;16.60;;;15.70;;
3050;SDS011;1535;51.098;6.414;2023-05-16T08:33:57;17.37;;;16.47;;
3050;SDS011;1535;51.098;6.414;2023-05-16T08:36:25;16.93;;;15.87;;
3050;SDS011;1535;51.098;6.414;2023-05-16T08:38:52;17.30;;;15.83;;
3050;SDS011;1535;51.098;6.414;2023-05-16T08:41:19;16.33;;;15.50;;
3050;SDS011;1535;51.098;6.414;2023-05-16T08:43:46;18.23;;;16.80;;
3050;SDS011;1535;51.098;6.414;2023-05-16T08:46:14;17.97;;;17.07;;
3050;SDS011;1535;51.098;6.414;2023-05-16T08:48:45;16.07;;;15.27;;
3050;SDS011;1535;51.098;6.414;2023-05-16T08:51:16;18.13;;;16.90;;
3050;SDS011;1535;51.098;6.414;2023-05-16T08:53:45;17.47;;;15.80;;
3050;SDS011;1535;51.098;6.414;2023-05-16T08:56:19;16.53;;;15.73;;
3050;SDS011;1535;51.098;6.414;2023-05-16T08:58:47;16.40;;;15.60;;
3050;SDS011;1535;51.098;6.414;2023-05-16T09:01:14;16.63;;;15.60;;
3050;SDS011;1535;51.098;6.414;2023-05-16T09:03:42;15.97;;;15.17;;
3050;SDS011;1535;51.098;6.414;2023-05-16T09:06:11;16.60;;;15.70;;
3050;SDS011;1535;51.098;6.414;2023-05-16T09:08:38;16.80;;;15.60;;
3050;SDS011;1535;51.098;6.414;2023-05-16T09:11:04;19.17;;;17.53;;
3050;SDS011;1535;51.098;6.414;2023-05-16T09:13:32;17.10;;;16.20;;
3050;SDS011;1535;51.098;6.414;2023-05-16T09:16:12;16.50;;;15.70;;
3050;SDS011;1535;51.098;6.414;2023-05-16T09:18:42;17.10;;;16.20;;
3050;SDS011;1535;51.098;6.414;2023-05-16T09:21:14;16.60;;;15.80;;
3050;SDS011;1535;51.098;6.414;2023-05-16T09:23:43;17.30;;;16.00;;
3050;SDS011;1535;51.098;6.414;2023-05-16T09:26:13;16.27;;;15.47;;
3050;SDS011;1535;51.098;6.414;2023-05-16T09:28:43;16.57;;;15.77;;
3050;SDS011;1535;51.098;6.414;2023-05-16T09:31:19;17.50;;;16.50;;
3050;SDS011;1535;51.098;6.414;2023-05-16T09:33:48;16.67;;;15.83;;
3050;SDS011;1535;51.098;6.414;2023-05-16T09:36:17;18.50;;;17.40;;
3050;SDS011;1535;51.098;6.414;2023-05-16T09:38:46;17.53;;;16.63;;
3050;SDS011;1535;51.098;6.414;2023-05-16T09:41:15;17.53;;;16.63;;
3050;SDS011;1535;51.098;6.414;2023-05-16T09:43:42;17.57;;;16.67;;
3050;SDS011;1535;51.098;6.414;2023-05-16T09:46:11;18.50;;;17.30;;
3050;SDS011;1535;51.098;6.414;2023-05-16T09:48:43;18.20;;;17.00;;
3050;SDS011;1535;51.098;6.414;2023-05-16T09:51:10;18.17;;;16.83;;
3050;SDS011;1535;51.098;6.414;2023-05-16T09:53:39;17.93;;;16.73;;
3050;SDS011;1535;51.098;6.414;2023-05-16T09:56:09;17.03;;;16.07;;
3050;SDS011;1535;51.098;6.414;2023-05-16T09:58:40;16.77;;;15.87;;
3050;SDS011;1535;51.098;6.414;2023-05-16T10:01:08;16.43;;;15.63;;
3050;SDS011;1535;51.098;6.414;2023-05-16T10:03:36;17.20;;;16.30;;
3050;SDS011;1535;51.098;6.414;2023-05-16T10:06:05;18.13;;;17.20;;
3050;SDS011;1535;51.098;6.414;2023-05-16T10:08:32;17.70;;;16.80;;
3050;SDS011;1535;51.098;6.414;2023-05-16T10:11:02;18.90;;;18.00;;
3050;SDS011;1535;51.098;6.414;2023-05-16T10:13:31;19.10;;;17.90;;
3050;SDS011;1535;51.098;6.414;2023-05-16T10:15:59;18.40;;;17.40;;
3050;SDS011;1535;51.098;6.414;2023-05-16T10:18:33;18.80;;;17.80;;
3050;SDS011;1535;51.098;6.414;2023-05-16T10:21:06;17.10;;;16.30;;
3050;SDS011;1535;51.098;6.414;2023-05-16T10:23:37;17.60;;;16.70;;
3050;SDS011;1535;51.098;6.414;2023-05-16T10:26:10;16.33;;;15.53;;
3050;SDS011;1535;51.098;6.414;2023-05-16T10:28:40;17.50;;;16.70;;
3050;SDS011;1535;51.098;6.414;2023-05-16T10:31:09;17.13;;;16.33;;
3050;SDS011;1535;51.098;6.414;2023-05-16T10:33:36;16.97;;;16.17;;
3050;SDS011;1535;51.098;6.414;2023-05-16T10:36:08;17.07;;;16.17;;
3050;SDS011;1535;51.098;6.414;2023-05-16T10:38:36;18.07;;;16.67;;
3050;SDS011;1535;51.098;6.414;2023-05-16T10:41:09;17.93;;;17.13;;
3050;SDS011;1535;51.098;6.414;2023-05-16T10:43:38;18.07;;;16.97;;
3050;SDS011;1535;51.098;6.414;2023-05-16T10:46:06;18.80;;;17.93;;
3050;SDS011;1535;51.098;6.414;2023-05-16T10:48:35;17.27;;;16.47;;
3050;SDS011;1535;51.098;6.414;2023-05-16T10:51:04;18.80;;;17.90;;
3050;SDS011;1535;51.098;6.414;2023-05-16T10:54:05;18.23;;;17.43;;
3050;SDS011;1535;51.098;6.414;2023-05-16T10:56:40;18.50;;;17.50;;
3050;SDS011;1535;51.098;6.414;2023-05-16T10:59:22;18.10;;;17.30;;
3050;SDS011;1535;51.098;6.414;2023-05-16T11:01:51;19.17;;;18.00;;
3050;SDS011;1535;51.098;6.414;2023-05-16T11:04:19;18.90;;;17.60;;
3050;SDS011;1535;51.098;6.414;2023-05-16T11:06:51;18.40;;;17.60;;
3050;SDS011;1535;51.098;6.414;2023-05-16T11:09:24;18.40;;;17.60;;
3050;SDS011;1535;51.098;6.414;2023-05-16T11:11:54;19.33;;;18.53;;
3050;SDS011;1535;51.098;6.414;2023-05-16T11:14:36;18.43;;;17.63;;
3050;SDS011;1535;51.098;6.414;2023-05-16T11:17:08;18.67;;;17.77;;
3050;SDS011;1535;51.098;6.414;2023-05-16T11:19:41;18.60;;;17.80;;
3050;SDS011;1535;51.098;6.414;2023-05-16T11:22:12;19.43;;;18.53;;
3050;SDS011;1535;51.098;6.414;2023-05-16T11:24:50;18.57;;;17.77;;
3050;SDS011;1535;51.098;6.414;2023-05-16T11:27:27;17.47;;;16.67;;
3050;SDS011;1535;51.098;6.414;2023-05-16T11:29:57;17.97;;;16.90;;
3050;SDS011;1535;51.098;6.414;2023-05-16T11:32:25;17.87;;;17.07;;
3050;SDS011;1535;51.098;6.414;2023-05-16T11:34:52;18.83;;;17.93;;
3050;SDS011;1535;51.098;6.414;2023-05-16T11:37:19;19.30;;;18.10;;
3050;SDS011;1535;51.098;6.414;2023-05-16T11:39:49;17.60;;;16.80;;
3050;SDS011;1535;51.098;6.414;2023-05-16T11:42:16;18.43;;;17.53;;
3050;SDS011;1535;51.098;6.414;2023-05-16T11:44:44;18.40;;;17.30;;
3050;SDS011;1535;51.098;6.414;2023-05-16T11:47:11;17.40;;;16.60;;
3050;SDS011;1535;51.098;6.414;2023-05-16T11:49:40;17.70;;;16.90;;
3050;SDS011;1535;51.098;6.414;2023-05-16T11:52:07;17.23;;;16.43;;
3050;SDS011;1535;51.098;6.414;2023-05-16T11:54:34;16.73;;;16.03;;
3050;SDS011;1535;51.098;6.414;2023-05-16T11:57:04;16.30;;;15.60;;
3050;SDS011;1535;51.098;6.414;2023-05-16T11:59:35;17.10;;;16.30;;
3050;SDS011;1535;51.098;6.414;2023-05-16T12:02:06;17.20;;;16.40;;
3050;SDS011;1535;51.098;6.414;2023-05-16T12:04:34;18.20;;;17.30;;
3050;SDS011;1535;51.098;6.414;2023-05-16T12:07:03;16.70;;;16.00;;
3050;SDS011;1535;51.098;6.414;2023-05-16T12:09:31;16.80;;;16.10;;
3050;SDS011;1535;51.098;6.414;2023-05-16T12:12:02;17.37;;;16.50;;
3050;SDS011;1535;51.098;6.414;2023-05-16T12:14:32;16.60;;;15.90;;
3050;SDS011;1535;51.098;6.414;2023-05-16T12:17:01;17.47;;;16.57;;
3050;SDS011;1535;51.098;6.414;2023-05-16T12:19:31;16.70;;;16.00;;
3050;SDS011;1535;51.098;6.414;2023-05-16T12:22:00;16.57;;;15.77;;
3050;SDS011;1535;51.098;6.414;2023-05-16T12:24:30;17.77;;;16.97;;
3050;SDS011;1535;51.098;6.414;2023-05-16T12:26:57;16.70;;;16.00;;
3050;SDS011;1535;51.098;6.414;2023-05-16T12:29:24;17.40;;;16.40;;
3050;SDS011;1535;51.098;6.414;2023-05-16T12:31:52;16.70;;;16.00;;
3050;SDS011;1535;51.098;6.414;2023-05-16T12:34:20;16.73;;;16.03;;
3050;SDS011;1535;51.098;6.414;2023-05-16T12:36:51;16.30;;;15.60;;
3050;SDS011;1535;51.098;6.414;2023-05-16T12:39:20;16.30;;;15.60;;
3050;SDS011;1535;51.098;6.414;2023-05-16T12:41:48;16.70;;;15.90;;
3050;SDS011;1535;51.098;6.414;2023-05-16T12:44:15;18.27;;;16.73;;
3050;SDS011;1535;51.098;6.414;2023-05-16T12:46:43;16.30;;;15.57;;
3050;SDS011;1535;51.098;6.414;2023-05-16T12:49:14;16.27;;;15.57;;
3050;SDS011;1535;51.098;6.414;2023-05-16T12:51:47;16.17;;;15.47;;
3050;SDS011;1535;51.098;6.414;2023-05-16T12:54:16;16.00;;;15.30;;
3050;SDS011;1535;51.098;6.414;2023-05-16T12:56:44;15.97;;;15.27;;
3050;SDS011;1535;51.098;6.414;2023-05-16T12:59:13;16.40;;;15.70;;
3050;SDS011;1535;51.098;6.414;2023-05-16T13:01:42;17.37;;;16.30;;
3050;SDS011;1535;51.098;6.414;2023-05-16T13:04:12;16.40;;;15.70;;
3050;SDS011;1535;51.098;6.414;2023-05-16T13:06:43;16.53;;;15.83;;
3050;SDS011;1535;51.098;6.414;2023-05-16T13:09:14;15.90;;;15.20;;
3050;SDS011;1535;51.098;6.414;2023-05-16T13:11:45;17.07;;;16.10;;
3050;SDS011;1535;51.098;6.414;2023-05-16T13:14:12;17.00;;;16.20;;
3050;SDS011;1535;51.098;6.414;2023-05-16T13:16:40;17.20;;;16.40;;
3050;SDS011;1535;51.098;6.414;2023-05-16T13:19:09;16.10;;;15.40;;
3050;SDS011;1535;51.098;6.414;2023-05-16T13:21:35;16.87;;;16.07;;
3050;SDS011;1535;51.098;6.414;2023-05-16T13:24:02;16.20;;;15.50;;
3050;SDS011;1535;51.098;6.414;2023-05-16T13:26:32;16.70;;;15.90;;
3050;SDS011;1535;51.098;6.414;2023-05-16T13:29:04;16.03;;;15.23;;
3050;SDS011;1535;51.098;6.414;2023-05-16T13:31:35;16.00;;;15.30;;
3050;SDS011;1535;51.098;6.414;2023-05-16T13:34:03;16.50;;;15.70;;
3050;SDS011;1535;51.098;6.414;2023-05-16T13:36:32;15.33;;;14.73;;
3050;SDS011;1535;51.098;6.414;2023-05-16T13:39:03;15.67;;;15.07;;
3050;SDS011;1535;51.098;6.414;2023-05-16T13:41:30;16.60;;;15.90;;
3050;SDS011;1535;51.098;6.414;2023-05-16T13:44:03;15.40;;;14.80;;
3050;SDS011;1535;51.098;6.414;2023-05-16T13:46:31;15.80;;;15.20;;
3050;SDS011;1535;51.098;6.414;2023-05-16T13:48:59;16.43;;;15.53;;
3050;SDS011;1535;51.098;6.414;2023-05-16T13:51:27;15.67;;;15.07;;
3050;SDS011;1535;51.098;6.414;2023-05-16T13:53:57;16.13;;;15.43;;
3050;SDS011;1535;51.098;6.414;2023-05-16T13:56:24;16.27;;;15.57;;
3050;SDS011;1535;51.098;6.414;2023-05-16T13:58:53;16.50;;;15.50;;
3050;SDS011;1535;51.098;6.414;2023-05-16T14:01:25;16.40;;;15.70;;
3050;SDS011;1535;51.098;6.414;2023-05-16T14:03:56;16.63;;;15.80;;
3050;SDS011;1535;51.098;6.414;2023-05-16T14:06:24;17.40;;;16.50;;
3050;SDS011;1535;51.098;6.414;2023-05-16T14:08:56;17.33;;;16.23;;
3050;SDS011;1535;51.098;6.414;2023-05-16T14:11:24;17.67;;;16.20;;
3050;SDS011;1535;51.098;6.414;2023-05-16T14:13:51;16.63;;;15.83;;
3050;SDS011;1535;51.098;6.414;2023-05-16T14:16:19;16.67;;;15.97;;
3050;SDS011;1535;51.098;6.414;2023-05-16T14:18:48;16.97;;;16.17;;
3050;SDS011;1535;51.098;6.414;2023-05-16T14:21:17;17.00;;;15.90;;
3050;SDS011;1535;51.098;6.414;2023-05-16T14:23:47;19.37;;;18.23;;
3050;SDS011;1535;51.098;6.414;2023-05-16T14:26:15;16.97;;;16.07;;
3050;SDS011;1535;51.098;6.414;2023-05-16T14:28:47;17.33;;;16.53;;
3050;SDS011;1535;51.098;6.414;2023-05-16T14:31:15;17.00;;;16.20;;
3050;SDS011;1535;51.098;6.414;2023-05-16T14:33:42;16.60;;;15.80;;
3050;SDS011;1535;51.098;6.414;2023-05-16T14:36:10;16.00;;;15.30;;
3050;SDS011;1535;51.098;6.414;2023-05-16T14:38:37;16.40;;;15.70;;
3050;SDS011;1535;51.098;6.414;2023-05-16T14:41:04;17.23;;;16.50;;
3050;SDS011;1535;51.098;6.414;2023-05-16T14:43:31;16.50;;;15.80;;
3050;SDS011;1535;51.098;6.414;2023-05-16T14:45:58;17.70;;;16.90;;
3050;SDS011;1535;51.098;6.414;2023-05-16T14:48:25;20.53;;;19.33;;
3050;SDS011;1535;51.098;6.414;2023-05-16T14:50:52;17.47;;;16.57;;
3050;SDS011;1535;51.098;6.414;2023-05-16T14:53:20;16.90;;;16.10;;
3050;SDS011;1535;51.098;6.414;2023-05-16T14:55:47;16.67;;;15.97;;
3050;SDS011;1535;51.098;6.414;2023-05-16T14:58:15;15.90;;;15.23;;
3050;SDS011;1535;51.098;6.414;2023-05-16T15:00:42;16.43;;;15.63;;
3050;SDS011;1535;51.098;6.414;2023-05-16T15:03:09;17.20;;;16.40;;
3050;SDS011;1535;51.098;6.414;2023-05-16T15:05:36;16.80;;;15.93;;
3050;SDS011;1535;51.098;6.414;2023-05-16T15:08:04;18.17;;;17.13;;